createdAt,value
2022-08-31T06:01:16.739Z,1027.5896430186078
2022-08-31T06:12:22.711Z,1027.6176700529138
2022-08-31T06:22:07.032Z,1027.6790398883768
2022-08-31T06:29:32.118Z,1027.7048951782886
2022-08-31T06:37:57.937Z,1027.7750954352198
2022-08-31T06:47:29.863Z,1027.837854817474
2022-08-31T06:58:53.814Z,1027.8510673372746
2022-08-31T07:09:40.285Z,1027.8428722044841
2022-08-31T07:17:44.516Z,1027.8568530518955
2022-08-31T07:24:22.832Z,1027.8728379474073
2022-08-31T07:30:44.226Z,1027.8845555864266
2022-08-31T07:37:05.832Z,1027.9056018522722
2022-08-31T07:43:27.338Z,1027.9177543796488
2022-08-31T07:49:49.000Z,1027.8888390633256
2022-08-31T08:07:33.180Z,1027.9451797235702
2022-08-31T08:13:55.953Z,1027.9375353474445
2022-08-31T08:20:17.625Z,1027.9182557054444
2022-08-31T08:27:04.170Z,1027.9642608163228
2022-08-31T08:33:25.952Z,1028.0380834564999
2022-08-31T08:39:47.830Z,1028.097208876866
2022-08-31T08:46:31.277Z,1028.1004492730071
2022-08-31T08:58:17.295Z,1028.0672242344956
2022-08-31T09:04:40.349Z,1028.0828286928718
2022-08-31T09:11:02.567Z,1028.0947015520642
2022-08-31T09:21:46.554Z,1027.9848087934863
2022-08-31T09:28:16.164Z,1027.8997347515196
2022-08-31T09:34:37.571Z,1027.9250014924064
2022-08-31T09:40:59.567Z,1027.8994553999535
2022-08-31T09:57:31.543Z,1027.9082595946904
2022-08-31T10:03:53.932Z,1027.8628985008363
2022-08-31T10:10:18.750Z,1027.8053301958555
2022-08-31T10:16:51.550Z,1027.7639510404138
2022-08-31T10:23:55.850Z,1027.71325650514
2022-08-31T10:38:40.891Z,1027.5964745861238
2022-08-31T10:45:02.556Z,1027.5340896837222
2022-08-31T10:51:24.078Z,1027.5230691112804
2022-08-31T10:57:45.044Z,1027.5009809457645
2022-08-31T11:04:06.593Z,1027.411311220402
2022-08-31T11:10:27.250Z,1027.400104054408
2022-08-31T11:16:49.362Z,1027.3459867416275
2022-08-31T11:25:41.417Z,1027.274939383878
2022-08-31T11:32:02.585Z,1027.1773668510552
2022-08-31T11:40:43.296Z,1027.1465916697443
2022-08-31T11:47:05.915Z,1027.0910370155025
2022-08-31T11:53:26.699Z,1027.0417052821615
2022-08-31T11:59:47.931Z,1026.9766608746174
2022-08-31T12:06:08.646Z,1026.9801563924175
2022-08-31T12:14:43.883Z,1026.8847188600516
2022-08-31T12:21:05.799Z,1026.8159505463775
2022-08-31T12:32:26.167Z,1026.71821429121
2022-08-31T12:39:00.911Z,1026.6753966705076
2022-08-31T12:45:22.365Z,1026.6899233803438
2022-08-31T12:51:45.992Z,1026.6218953531227
2022-08-31T12:58:07.432Z,1026.546260411598
2022-08-31T13:08:02.771Z,1026.4996437727045
2022-08-31T13:14:24.157Z,1026.429485536331
2022-08-31T13:20:45.045Z,1026.406568442639
2022-08-31T13:27:14.139Z,1026.3368112022938
2022-08-31T13:33:35.239Z,1026.2924174357809
2022-08-31T13:39:56.038Z,1026.1681206925853
2022-08-31T13:46:16.985Z,1026.2210401642153
2022-08-31T13:52:38.398Z,1026.216178242125
2022-08-31T13:58:59.761Z,1026.2043613587166
2022-08-31T14:05:21.411Z,1026.1002611260135
2022-08-31T14:11:42.591Z,1026.0845852650966
2022-08-31T14:18:27.058Z,1026.0522606250436
2022-08-31T14:24:59.836Z,1026.029722955216
2022-08-31T14:31:21.835Z,1025.929936015447
2022-08-31T14:37:45.021Z,1025.9075599990583
2022-08-31T14:44:07.450Z,1025.882105763613
2022-08-31T14:50:30.686Z,1025.8130408181278
2022-08-31T15:02:26.409Z,1025.7075320168083
2022-08-31T15:08:47.955Z,1025.6974355057948
2022-08-31T15:15:09.970Z,1025.6595349544723
2022-08-31T15:21:31.629Z,1025.6179761256692
2022-08-31T15:28:12.186Z,1025.6344200051492
2022-08-31T15:34:33.325Z,1025.6214987175354
2022-08-31T15:40:54.722Z,1025.601225853888
2022-08-31T15:51:23.298Z,1025.5386277110754
2022-08-31T15:57:44.331Z,1025.5071329189682
2022-08-31T16:04:05.381Z,1025.5223070654486
2022-08-31T16:14:33.614Z,1025.4373893582415
2022-08-31T16:20:55.759Z,1025.374954960032
2022-08-31T16:27:22.762Z,1025.3198033693639
2022-08-31T16:33:43.484Z,1025.3103587331432
2022-08-31T16:40:04.802Z,1025.2697587410062
2022-08-31T16:46:40.203Z,1025.273794102425
2022-08-31T16:53:04.297Z,1025.2390250429423
2022-08-31T16:59:26.398Z,1025.2403365804776
2022-08-31T17:05:48.601Z,1025.2560871340545
2022-08-31T17:12:09.720Z,1025.3052623288586
2022-08-31T17:18:31.016Z,1025.3166669223617
2022-08-31T17:24:55.832Z,1025.3393855303532
2022-08-31T17:37:13.309Z,1025.417396927467
2022-08-31T17:43:33.946Z,1025.423823237093
2022-08-31T17:49:55.157Z,1025.4612606795001
2022-08-31T17:56:16.343Z,1025.4550678283754
2022-08-31T18:02:38.386Z,1025.5233122859229
2022-08-31T18:09:03.163Z,1025.584750053986
2022-08-31T18:16:29.341Z,1025.584067362469
2022-08-31T18:23:04.704Z,1025.622781514976
2022-08-31T18:31:05.312Z,1025.6627350677288
2022-08-31T18:37:28.331Z,1025.7106246967883
2022-08-31T18:43:51.187Z,1025.8413863522103
2022-08-31T18:50:13.238Z,1025.9600510892492
2022-08-31T18:56:34.924Z,1026.0123364425694
2022-08-31T19:06:08.041Z,1026.0294223312148
2022-08-31T19:18:14.641Z,1026.0581668381676
2022-08-31T19:31:50.084Z,1026.064382140919
2022-08-31T19:38:14.392Z,1026.0766617859958
2022-08-31T19:45:22.457Z,1026.0777458173277
2022-08-31T19:54:45.695Z,1026.0928201751647
2022-08-31T20:01:28.468Z,1026.0707183894833
2022-08-31T20:08:03.964Z,1026.0871460053152
2022-08-31T20:14:27.170Z,1026.10592783733
2022-08-31T20:20:49.729Z,1026.1501406641403
2022-08-31T20:27:22.835Z,1026.2180978509912
2022-08-31T20:39:21.816Z,1026.2821248652463
2022-08-31T20:49:37.943Z,1026.3630325634722
2022-08-31T20:59:32.782Z,1026.4046889903975
2022-08-31T21:05:53.706Z,1026.4452251038185
2022-08-31T21:13:33.141Z,1026.471478687646
2022-08-31T21:19:54.512Z,1026.507316343544
2022-08-31T21:28:38.771Z,1026.5324811571427
2022-08-31T21:35:00.639Z,1026.5673836791384
2022-08-31T21:41:21.509Z,1026.6207340306014
2022-08-31T21:47:42.674Z,1026.662616502926
2022-08-31T21:54:03.889Z,1026.6926110012307
2022-08-31T22:00:25.012Z,1026.7288641685006
2022-08-31T22:06:46.201Z,1026.6987457657458
2022-08-31T22:13:46.745Z,1026.7218198418777
2022-08-31T22:20:08.515Z,1026.7449898565483
2022-08-31T22:26:36.878Z,1026.7866962426212
2022-08-31T22:34:07.621Z,1026.827105396599
2022-08-31T22:40:28.908Z,1026.83997342421
2022-08-31T22:46:50.252Z,1026.8692561632927
2022-08-31T22:53:12.400Z,1026.8692858077056
2022-08-31T22:59:34.392Z,1026.902909298159
2022-08-31T23:05:54.864Z,1026.901076404874
2022-08-31T23:16:14.473Z,1026.8198620403152
2022-08-31T23:22:35.780Z,1026.7726546397353
2022-08-31T23:29:06.402Z,1026.7316997341477
2022-08-31T23:35:27.479Z,1026.7044495778673
2022-08-31T23:41:48.159Z,1026.6538715265795
2022-08-31T23:48:31.056Z,1026.656528751711
2022-08-31T23:54:52.483Z,1026.6888765973792
